Time;durP1;ratioP1;P1;durP2;ratioP2;P2;SDS_P1;SDS_P2;PMS_P1;PMS_P2;Temp;Humidity;BMP_temperature;BMP_pressure;BME280_temperature;BME280_humidity;BME280_pressure;Samples;Min_cycle;Max_cycle;Signal;HPM_P1;HPM_P2
2023/06/19 00:01:55;;;;;;;7.85;5.45;;;21.50;99.90;;;;;;5073043;28;20036;-80
2023/06/19 00:04:20;;;;;;;6.75;6.13;;;21.40;99.90;;;;;;5069994;28;20048;-80
2023/06/19 00:06:46;;;;;;;6.32;5.72;;;21.40;99.90;;;;;;5076461;28;20040;-80
2023/06/19 00:09:12;;;;;;;7.10;5.55;;;21.40;99.90;;;;;;5080064;28;20055;-80
2023/06/19 00:11:37;;;;;;;6.20;5.60;;;21.40;99.90;;;;;;5078231;28;20496;-80
2023/06/19 00:14:03;;;;;;;7.63;5.63;;;21.40;99.90;;;;;;5064086;28;20032;-80
2023/06/19 00:16:28;;;;;;;6.00;5.22;;;21.40;99.90;;;;;;5076796;28;20644;-79
2023/06/19 00:18:55;;;;;;;6.53;5.85;;;21.40;99.90;;;;;;5071127;28;20086;-79
2023/06/19 00:21:25;;;;;;;5.50;4.97;;;21.30;99.90;;;;;;5061333;28;20046;-80
2023/06/19 00:23:52;;;;;;;10.38;5.75;;;21.30;99.90;;;;;;5054711;28;20059;-80
2023/06/19 00:26:19;;;;;;;6.68;5.97;;;21.40;99.90;;;;;;5073564;28;20748;-79
2023/06/19 00:28:47;;;;;;;7.25;5.43;;;21.30;99.90;;;;;;5083792;28;20032;-80
2023/06/19 00:31:14;;;;;;;5.80;5.28;;;21.30;99.90;;;;;;5079022;28;20631;-80
2023/06/19 00:33:41;;;;;;;6.70;5.25;;;21.30;99.90;;;;;;5073167;28;20085;-80
2023/06/19 00:36:10;;;;;;;6.50;5.85;;;21.30;99.90;;;;;;5078365;28;20089;-80
2023/06/19 00:38:37;;;;;;;6.53;5.45;;;21.30;99.90;;;;;;5072163;28;20963;-80
2023/06/19 00:41:05;;;;;;;10.18;5.90;;;21.20;99.90;;;;;;5066730;28;20047;-80
2023/06/19 00:43:31;;;;;;;7.25;5.97;;;21.30;99.90;;;;;;5072200;28;20483;-80
2023/06/19 00:45:58;;;;;;;6.18;5.55;;;21.20;99.90;;;;;;5071289;28;20493;-80
2023/06/19 00:48:24;;;;;;;7.47;6.05;;;21.10;99.90;;;;;;5068868;28;20108;-81
2023/06/19 00:50:50;;;;;;;6.40;5.80;;;21.20;99.90;;;;;;5077311;28;20233;-81
2023/06/19 00:53:17;;;;;;;6.40;5.40;;;21.20;99.90;;;;;;5074323;28;20044;-80
2023/06/19 00:55:43;;;;;;;6.28;5.32;;;21.10;99.90;;;;;;5063914;28;20143;-81
2023/06/19 00:58:09;;;;;;;6.07;5.35;;;20.90;99.90;;;;;;5075982;28;20055;-80
2023/06/19 01:00:35;;;;;;;7.50;6.07;;;21.10;99.90;;;;;;5071372;28;20037;-81
2023/06/19 01:03:01;;;;;;;6.18;5.57;;;21.10;99.90;;;;;;5070181;28;20049;-81
2023/06/19 01:05:26;;;;;;;7.43;5.53;;;21.10;99.90;;;;;;5084162;28;20028;-80
2023/06/19 01:08:11;;;;;;;6.03;5.53;;;21.10;99.90;;;;;;5074936;28;20400;-81
2023/06/19 01:10:40;;;;;;;6.45;5.68;;;21.10;99.90;;;;;;5073080;28;20055;-81
2023/06/19 01:13:10;;;;;;;6.70;5.65;;;21.10;99.90;;;;;;5077987;28;20442;-81
2023/06/19 01:15:38;;;;;;;7.63;5.90;;;21.10;99.90;;;;;;5076329;28;20125;-81
2023/06/19 01:18:04;;;;;;;6.70;5.38;;;21.10;99.90;;;;;;5065563;28;20484;-80
2023/06/19 01:20:30;;;;;;;6.22;5.40;;;21.10;99.90;;;;;;5082081;28;20032;-80
2023/06/19 01:22:56;;;;;;;6.68;6.00;;;21.10;99.90;;;;;;5075121;28;20438;-80
2023/06/19 01:25:24;;;;;;;7.78;5.35;;;21.00;99.90;;;;;;5073216;28;20048;-81
2023/06/19 01:27:50;;;;;;;8.45;5.85;;;21.00;99.90;;;;;;5072913;28;20040;-81
2023/06/19 01:30:16;;;;;;;8.55;5.63;;;21.00;99.90;;;;;;5084936;28;20044;-80
2023/06/19 01:32:56;;;;;;;5.88;5.38;;;21.00;99.90;;;;;;5080753;28;20036;-80
2023/06/19 01:35:29;;;;;;;6.53;5.90;;;21.00;99.90;;;;;;5073605;28;20115;-80
2023/06/19 01:37:55;;;;;;;6.03;5.53;;;21.00;99.90;;;;;;5068518;28;20043;-81
2023/06/19 01:40:25;;;;;;;7.47;5.47;;;21.00;99.90;;;;;;5081772;28;20039;-81
2023/06/19 01:42:56;;;;;;;7.05;6.07;;;20.90;99.90;;;;;;5075226;28;20127;-80
2023/06/19 01:45:22;;;;;;;6.88;6.00;;;20.90;99.90;;;;;;5068276;28;20032;-80
2023/06/19 01:47:48;;;;;;;7.53;5.60;;;20.90;99.90;;;;;;5079122;28;20048;-80
2023/06/19 01:50:14;;;;;;;7.18;5.93;;;20.90;99.90;;;;;;5073628;28;20045;-81
2023/06/19 01:52:41;;;;;;;6.32;5.68;;;20.90;99.90;;;;;;5080565;28;20424;-81
2023/06/19 01:55:07;;;;;;;7.60;5.68;;;20.90;99.90;;;;;;5078068;28;20409;-81
2023/06/19 01:57:33;;;;;;;6.32;5.80;;;20.90;99.90;;;;;;5082641;28;20392;-79
2023/06/19 01:59:59;;;;;;;6.35;4.78;;;20.80;99.90;;;;;;5068042;28;20048;-80
2023/06/19 02:02:24;;;;;;;6.05;5.47;;;20.80;99.90;;;;;;5078983;28;20041;-79
2023/06/19 02:04:50;;;;;;;7.18;5.68;;;20.80;99.90;;;;;;5077474;28;20082;-79
2023/06/19 02:07:16;;;;;;;9.27;6.28;;;20.90;99.90;;;;;;5096424;28;20039;-78
2023/06/19 02:09:41;;;;;;;8.57;6.43;;;20.80;99.90;;;;;;5058440;28;20473;-80
2023/06/19 02:12:08;;;;;;;7.72;5.50;;;20.80;99.90;;;;;;5075925;28;20079;-80
2023/06/19 02:14:33;;;;;;;6.80;6.13;;;20.80;99.90;;;;;;5076371;28;20036;-81
2023/06/19 02:16:59;;;;;;;6.82;6.07;;;21.40;99.90;;;;;;5083134;28;20055;-80
2023/06/19 02:19:24;;;;;;;6.53;5.53;;;21.00;99.90;;;;;;5065200;28;20041;-79
2023/06/19 02:21:50;;;;;;;6.07;5.60;;;20.80;99.90;;;;;;5070225;28;20081;-79
2023/06/19 02:24:16;;;;;;;6.85;6.15;;;20.80;99.90;;;;;;5071815;28;20182;-79
2023/06/19 02:26:43;;;;;;;7.25;6.07;;;20.80;99.90;;;;;;5048835;28;20069;-80
2023/06/19 02:29:09;;;;;;;6.28;5.72;;;20.80;99.90;;;;;;5045540;28;20147;-80
2023/06/19 02:31:35;;;;;;;6.70;5.97;;;20.80;99.90;;;;;;5045934;28;20045;-80
2023/06/19 02:34:01;;;;;;;5.80;5.30;;;20.80;99.90;;;;;;5036971;28;20171;-79
2023/06/19 02:36:26;;;;;;;6.93;6.22;;;20.80;99.90;;;;;;5068124;28;20044;-79
2023/06/19 02:38:52;;;;;;;7.00;5.68;;;20.90;99.90;;;;;;5064344;28;20403;-80
2023/06/19 02:41:18;;;;;;;8.02;5.95;;;20.80;99.90;;;;;;5053495;28;20111;-79
2023/06/19 02:43:46;;;;;;;6.78;6.18;;;20.90;99.90;;;;;;5057272;28;20055;-80
2023/06/19 02:46:12;;;;;;;8.27;5.97;;;20.90;99.90;;;;;;5065493;28;20040;-80
2023/06/19 02:48:38;;;;;;;8.00;6.70;;;20.80;99.90;;;;;;5074063;28;20690;-80
2023/06/19 02:51:04;;;;;;;7.10;6.38;;;20.80;99.90;;;;;;5068838;28;20048;-80
2023/06/19 02:53:29;;;;;;;6.30;5.55;;;21.10;99.90;;;;;;5076642;28;20080;-79
2023/06/19 02:55:55;;;;;;;8.05;6.63;;;20.80;99.90;;;;;;5076241;28;20040;-80
2023/06/19 02:58:20;;;;;;;7.28;5.95;;;20.80;99.90;;;;;;5068903;28;20124;-79
2023/06/19 03:00:46;;;;;;;7.60;6.85;;;20.80;99.90;;;;;;5053629;28;20081;-79
2023/06/19 03:03:12;;;;;;;8.50;6.32;;;20.80;99.90;;;;;;5072201;28;20139;-80
2023/06/19 03:05:38;;;;;;;7.82;6.60;;;20.80;99.90;;;;;;5056848;28;20052;-79
2023/06/19 03:08:04;;;;;;;6.65;6.05;;;20.80;99.90;;;;;;5079553;28;20044;-80
2023/06/19 03:10:30;;;;;;;6.93;6.03;;;20.80;99.90;;;;;;5070468;28;20131;-79
2023/06/19 03:12:58;;;;;;;7.53;6.47;;;20.80;99.90;;;;;;5052645;28;20127;-79
2023/06/19 03:15:23;;;;;;;7.22;6.03;;;20.80;99.90;;;;;;5058055;28;20118;-79
2023/06/19 03:17:49;;;;;;;8.05;6.13;;;20.70;99.90;;;;;;5043649;28;20120;-81
2023/06/19 03:20:15;;;;;;;6.63;6.03;;;20.70;99.90;;;;;;5073166;28;20105;-79
2023/06/19 03:22:41;;;;;;;6.50;5.90;;;20.70;99.90;;;;;;5076705;28;20043;-79
2023/06/19 03:25:08;;;;;;;6.43;5.78;;;20.70;99.90;;;;;;5080820;28;20101;-80
2023/06/19 03:27:34;;;;;;;7.90;6.55;;;20.70;99.90;;;;;;5057151;28;20087;-80
2023/06/19 03:30:00;;;;;;;7.05;6.45;;;20.70;99.90;;;;;;5047755;28;20146;-80
2023/06/19 03:32:26;;;;;;;7.28;5.85;;;20.70;99.80;;;;;;5068432;28;20047;-79
2023/06/19 03:34:52;;;;;;;6.97;6.22;;;20.70;99.80;;;;;;5076371;28;20111;-80
2023/06/19 03:37:17;;;;;;;7.55;5.72;;;20.60;99.70;;;;;;5072533;28;20492;-80
2023/06/19 03:39:43;;;;;;;7.38;6.45;;;20.60;99.80;;;;;;5071640;28;20075;-80
2023/06/19 03:42:09;;;;;;;8.20;5.90;;;20.60;99.80;;;;;;5072607;28;20044;-80
2023/06/19 03:44:34;;;;;;;9.18;6.95;;;20.70;99.80;;;;;;5084001;28;20055;-80
2023/06/19 03:47:00;;;;;;;6.85;6.25;;;20.60;99.90;;;;;;5072851;28;20039;-80
2023/06/19 03:49:26;;;;;;;7.30;6.70;;;20.90;99.90;;;;;;5077255;28;20164;-79
2023/06/19 03:51:54;;;;;;;7.30;6.60;;;20.60;99.90;;;;;;5072977;28;20129;-80
2023/06/19 03:54:20;;;;;;;6.82;6.13;;;20.60;99.90;;;;;;5073278;28;20052;-79
2023/06/19 03:56:45;;;;;;;6.80;5.68;;;20.60;99.90;;;;;;5075592;28;20384;-79
2023/06/19 03:59:11;;;;;;;6.93;5.70;;;20.60;99.90;;;;;;5048444;28;20392;-80
2023/06/19 04:01:36;;;;;;;7.72;5.82;;;20.60;99.90;;;;;;5064203;28;20068;-80
2023/06/19 04:04:02;;;;;;;6.40;5.65;;;20.60;99.90;;;;;;5076388;28;20048;-79
2023/06/19 04:06:28;;;;;;;6.63;6.00;;;20.60;99.90;;;;;;5074868;28;20047;-81
2023/06/19 04:08:54;;;;;;;6.07;5.57;;;20.60;99.90;;;;;;5074778;28;20048;-81
2023/06/19 04:11:20;;;;;;;7.38;5.93;;;20.60;99.90;;;;;;5068255;28;20044;-80
2023/06/19 04:13:46;;;;;;;6.07;5.50;;;20.60;99.90;;;;;;5061390;28;20129;-81
2023/06/19 04:16:12;;;;;;;6.18;5.43;;;20.60;99.90;;;;;;5069658;28;20049;-81
2023/06/19 04:18:38;;;;;;;7.53;5.72;;;20.50;99.90;;;;;;5075827;28;20048;-81
2023/06/19 04:21:04;;;;;;;5.45;4.95;;;21.30;99.90;;;;;;5078353;28;20035;-82
2023/06/19 04:23:29;;;;;;;6.80;5.70;;;20.60;99.90;;;;;;5065894;28;20404;-80
2023/06/19 04:25:55;;;;;;;6.85;5.30;;;20.60;99.90;;;;;;5076482;28;20036;-80
2023/06/19 04:28:20;;;;;;;6.38;5.68;;;20.60;99.90;;;;;;5075448;28;20040;-80
2023/06/19 04:30:46;;;;;;;5.45;4.95;;;20.60;99.90;;;;;;5069868;28;20049;-81
2023/06/19 04:33:12;;;;;;;5.95;4.95;;;20.60;99.90;;;;;;5060784;28;20095;-81
2023/06/19 04:35:39;;;;;;;8.38;5.20;;;21.00;99.90;;;;;;5062808;28;20048;-81
2023/06/19 04:38:09;;;;;;;5.45;4.95;;;20.60;99.90;;;;;;5078803;28;20044;-80
2023/06/19 04:40:35;;;;;;;5.38;4.75;;;20.50;99.90;;;;;;5061978;28;20095;-80
2023/06/19 04:43:05;;;;;;;8.73;4.50;;;21.00;99.90;;;;;;5069659;28;20076;-81
2023/06/19 04:45:31;;;;;;;3.95;3.65;;;20.50;99.90;;;;;;5076533;28;20041;-81
2023/06/19 04:47:56;;;;;;;4.55;4.18;;;20.50;99.90;;;;;;5071926;28;20044;-81
2023/06/19 04:50:22;;;;;;;5.05;3.92;;;20.50;99.90;;;;;;5077995;28;20480;-81
2023/06/19 04:52:50;;;;;;;6.35;4.68;;;20.50;99.90;;;;;;5069790;28;20067;-81
2023/06/19 04:55:16;;;;;;;4.18;3.60;;;20.50;99.90;;;;;;5075773;28;20081;-82
2023/06/19 04:57:41;;;;;;;4.47;3.67;;;20.50;99.90;;;;;;5073342;28;20040;-81
2023/06/19 05:00:10;;;;;;;4.05;3.75;;;20.50;99.90;;;;;;5061594;28;20119;-81
2023/06/19 05:02:35;;;;;;;3.58;3.35;;;20.50;99.90;;;;;;5072926;28;20372;-81
2023/06/19 05:05:03;;;;;;;7.43;4.05;;;20.50;99.90;;;;;;5036398;28;20103;-82
2023/06/19 05:07:32;;;;;;;5.40;3.47;;;20.50;99.90;;;;;;5067432;28;20369;-81
2023/06/19 05:09:59;;;;;;;6.28;3.50;;;20.40;99.90;;;;;;5067437;28;20068;-82
2023/06/19 05:12:25;;;;;;;8.77;3.97;;;20.50;99.90;;;;;;5067220;28;20040;-82
2023/06/19 05:14:54;;;;;;;3.88;3.22;;;20.40;99.90;;;;;;5087691;28;20099;-83
2023/06/19 05:17:19;;;;;;;7.78;4.20;;;20.40;99.90;;;;;;5085678;28;20040;-81
2023/06/19 05:19:45;;;;;;;4.38;3.97;;;21.20;99.90;;;;;;5090862;28;20047;-82
2023/06/19 05:22:11;;;;;;;4.47;3.53;;;20.40;99.90;;;;;;5075491;28;20052;-83
2023/06/19 05:24:37;;;;;;;6.28;4.57;;;20.40;99.90;;;;;;5083073;28;20094;-83
2023/06/19 05:27:03;;;;;;;5.88;4.30;;;20.40;99.90;;;;;;5068164;28;20051;-83
2023/06/19 05:29:30;;;;;;;3.67;3.33;;;20.40;99.90;;;;;;5077262;28;20041;-82
2023/06/19 05:32:01;;;;;;;5.13;4.30;;;20.50;99.90;;;;;;5053671;28;20045;-82
2023/06/19 05:34:30;;;;;;;4.40;4.00;;;20.50;99.90;;;;;;5053769;28;20072;-82
2023/06/19 05:36:56;;;;;;;4.85;4.43;;;20.50;99.90;;;;;;5078334;28;20535;-82
2023/06/19 05:39:24;;;;;;;13.65;10.00;;;20.60;99.90;;;;;;5074311;28;20045;-83
2023/06/19 05:41:50;;;;;;;5.18;4.75;;;20.60;99.90;;;;;;5065058;28;20032;-81
2023/06/19 05:44:16;;;;;;;5.13;4.20;;;20.70;99.90;;;;;;5077639;28;20040;-81
2023/06/19 05:46:42;;;;;;;4.18;3.78;;;20.70;99.90;;;;;;5084060;28;20040;-83
2023/06/19 05:49:08;;;;;;;5.70;4.70;;;20.70;99.90;;;;;;5072568;28;20661;-81
2023/06/19 05:51:36;;;;;;;5.22;4.78;;;21.80;99.90;;;;;;5071388;28;20032;-81
2023/06/19 05:54:03;;;;;;;5.18;4.68;;;20.70;99.90;;;;;;5075024;28;20044;-82
2023/06/19 05:56:33;;;;;;;8.50;5.53;;;20.70;99.90;;;;;;5062583;28;20064;-82
2023/06/19 05:59:02;;;;;;;7.22;6.22;;;20.70;99.90;;;;;;5082225;28;20044;-82
2023/06/19 06:01:29;;;;;;;6.93;5.70;;;20.60;99.90;;;;;;5080713;28;20053;-82
2023/06/19 06:03:55;;;;;;;5.97;5.47;;;20.70;99.90;;;;;;5075803;28;20037;-83
2023/06/19 06:06:22;;;;;;;6.45;5.85;;;20.80;99.90;;;;;;5062110;28;20407;-81
2023/06/19 06:08:48;;;;;;;7.20;6.50;;;20.90;99.90;;;;;;5073437;28;20043;-83
2023/06/19 06:11:14;;;;;;;8.63;7.30;;;20.60;99.90;;;;;;5064453;28;20032;-83
2023/06/19 06:13:40;;;;;;;7.75;7.10;;;20.60;99.90;;;;;;5067025;28;20055;-81
2023/06/19 06:16:06;;;;;;;9.25;8.35;;;20.70;99.90;;;;;;5082632;28;20073;-81
2023/06/19 06:18:31;;;;;;;8.57;7.65;;;20.70;99.90;;;;;;5080639;28;20048;-82
2023/06/19 06:20:59;;;;;;;8.52;7.80;;;20.70;99.90;;;;;;5075443;28;20115;-81
2023/06/19 06:23:25;;;;;;;13.48;9.93;;;20.70;99.90;;;;;;5042420;28;20122;-82
2023/06/19 06:25:50;;;;;;;9.00;8.20;;;20.60;99.90;;;;;;5068077;28;20494;-82
2023/06/19 06:28:17;;;;;;;8.68;7.40;;;20.60;99.90;;;;;;5071163;28;20484;-82
2023/06/19 06:30:43;;;;;;;7.22;6.53;;;20.80;99.90;;;;;;5072025;28;20048;-82
2023/06/19 06:33:08;;;;;;;8.98;6.68;;;20.80;99.90;;;;;;5060166;28;20037;-82
2023/06/19 06:35:35;;;;;;;7.63;6.43;;;20.70;99.90;;;;;;5068841;28;20059;-81
2023/06/19 06:38:01;;;;;;;6.68;6.20;;;20.70;99.90;;;;;;5062867;28;20044;-81
2023/06/19 06:40:27;;;;;;;8.45;6.43;;;20.70;99.90;;;;;;5076765;28;20115;-79
2023/06/19 06:42:53;;;;;;;7.75;6.63;;;20.80;99.90;;;;;;5055599;28;20539;-79
2023/06/19 06:45:19;;;;;;;6.78;6.18;;;20.70;99.90;;;;;;5079806;28;20457;-78
2023/06/19 06:47:45;;;;;;;7.45;6.75;;;20.70;99.90;;;;;;5071895;28;20206;-79
2023/06/19 06:50:11;;;;;;;11.27;6.35;;;20.70;99.90;;;;;;5082274;28;20108;-79
2023/06/19 06:52:37;;;;;;;8.50;6.55;;;20.70;99.90;;;;;;5071116;28;20131;-79
2023/06/19 06:55:04;;;;;;;7.32;6.63;;;20.70;99.90;;;;;;5093171;28;20529;-78
2023/06/19 06:57:29;;;;;;;8.10;7.28;;;20.60;99.90;;;;;;5091681;28;20040;-79
2023/06/19 06:59:55;;;;;;;6.82;6.32;;;20.50;99.90;;;;;;5075379;28;20139;-78
2023/06/19 07:02:20;;;;;;;7.25;6.55;;;20.50;99.90;;;;;;5072960;28;20082;-80
2023/06/19 07:04:46;;;;;;;9.75;8.75;;;20.50;99.90;;;;;;5082135;28;20171;-80
2023/06/19 07:07:18;;;;;;;9.95;8.93;;;20.50;99.90;;;;;;5075567;28;20675;-80
2023/06/19 07:09:43;;;;;;;13.63;10.68;;;20.50;99.90;;;;;;5073948;28;20119;-80
2023/06/19 07:12:09;;;;;;;15.20;12.10;;;20.70;99.90;;;;;;5076499;28;20132;-80
2023/06/19 07:14:35;;;;;;;12.50;11.20;;;20.40;99.90;;;;;;5057561;28;20056;-80
2023/06/19 07:17:00;;;;;;;17.30;13.35;;;20.30;99.90;;;;;;5076522;28;20028;-81
2023/06/19 07:19:26;;;;;;;17.08;14.05;;;20.40;99.90;;;;;;5080480;28;20050;-79
2023/06/19 07:21:52;;;;;;;14.70;13.30;;;20.30;99.90;;;;;;5078548;28;20061;-80
2023/06/19 07:24:17;;;;;;;17.15;14.43;;;20.30;99.90;;;;;;5073933;28;20452;-78
2023/06/19 07:26:43;;;;;;;18.17;16.27;;;20.30;99.90;;;;;;5070958;28;20060;-80
2023/06/19 07:29:08;;;;;;;21.58;17.80;;;20.30;99.90;;;;;;5073771;28;20431;-80
2023/06/19 07:31:34;;;;;;;22.92;17.65;;;20.30;99.90;;;;;;5055558;28;20044;-80
2023/06/19 07:34:00;;;;;;;18.45;16.27;;;20.20;99.90;;;;;;5047986;28;20176;-79
2023/06/19 07:36:25;;;;;;;18.90;16.90;;;20.80;99.90;;;;;;5077046;28;20049;-79
2023/06/19 07:38:52;;;;;;;18.75;16.75;;;20.20;99.90;;;;;;5058242;28;20073;-73
2023/06/19 07:41:17;;;;;;;19.65;16.60;;;20.10;99.90;;;;;;5077119;28;20113;-79
2023/06/19 07:43:43;;;;;;;19.33;16.10;;;20.20;99.90;;;;;;5059509;28;20075;-80
2023/06/19 07:46:09;;;;;;;17.35;15.02;;;20.30;99.90;;;;;;5075588;28;20506;-75
2023/06/19 07:48:35;;;;;;;17.25;14.85;;;20.20;99.90;;;;;;5071878;28;20496;-78
2023/06/19 07:51:00;;;;;;;16.77;13.38;;;20.20;99.90;;;;;;5083746;28;20111;-80
2023/06/19 07:53:26;;;;;;;13.57;12.10;;;20.20;99.90;;;;;;5081993;28;20161;-79
2023/06/19 07:55:52;;;;;;;15.90;13.25;;;20.30;99.90;;;;;;5071172;28;20059;-78
2023/06/19 07:58:18;;;;;;;14.60;12.15;;;20.30;99.90;;;;;;5074472;28;20041;-79
2023/06/19 08:00:43;;;;;;;21.52;12.57;;;20.40;99.90;;;;;;5075802;28;20502;-77
2023/06/19 08:03:09;;;;;;;13.77;12.07;;;20.30;99.90;;;;;;5063095;28;20040;-77
2023/06/19 08:05:34;;;;;;;12.05;10.75;;;20.30;99.90;;;;;;5060792;28;20040;-79
2023/06/19 08:08:01;;;;;;;14.93;10.27;;;20.30;99.90;;;;;;5065868;28;20036;-78
2023/06/19 08:10:27;;;;;;;13.10;9.68;;;20.30;99.90;;;;;;5039203;28;20428;-79
2023/06/19 08:12:52;;;;;;;10.80;9.70;;;20.20;99.90;;;;;;5061424;28;20045;-80
2023/06/19 08:15:18;;;;;;;12.32;10.95;;;20.10;99.90;;;;;;5031990;28;20128;-80
2023/06/19 08:17:44;;;;;;;13.50;9.73;;;20.00;99.90;;;;;;5052959;28;20618;-81
2023/06/19 08:20:10;;;;;;;12.93;9.82;;;20.00;99.90;;;;;;5054607;28;20044;-80
2023/06/19 08:22:36;;;;;;;12.30;9.63;;;20.00;99.90;;;;;;5065513;28;20040;-80
2023/06/19 08:25:02;;;;;;;15.30;10.07;;;20.00;99.90;;;;;;5070351;28;20052;-80
2023/06/19 08:27:31;;;;;;;10.75;9.60;;;20.00;99.90;;;;;;5083065;28;20047;-83
2023/06/19 08:29:57;;;;;;;13.43;9.23;;;20.00;99.90;;;;;;5082349;28;20036;-82
2023/06/19 08:32:22;;;;;;;10.70;9.55;;;20.00;99.90;;;;;;5086598;28;20040;-81
2023/06/19 08:34:48;;;;;;;14.05;9.30;;;20.00;99.90;;;;;;5071477;28;20051;-81
2023/06/19 08:37:13;;;;;;;10.32;9.15;;;19.90;99.90;;;;;;5078251;28;20101;-82
2023/06/19 08:39:39;;;;;;;9.52;7.93;;;19.90;99.90;;;;;;5064023;28;20037;-82
2023/06/19 08:42:08;;;;;;;10.10;8.48;;;20.20;99.90;;;;;;5091207;28;20044;-82
2023/06/19 08:44:35;;;;;;;10.57;7.80;;;19.90;99.90;;;;;;5058161;28;20037;-82
2023/06/19 08:47:04;;;;;;;12.88;7.55;;;19.90;99.90;;;;;;5074118;28;20032;-83
2023/06/19 08:49:31;;;;;;;9.57;7.72;;;19.90;99.90;;;;;;5075220;28;20153;-82
2023/06/19 08:51:57;;;;;;;8.18;7.25;;;19.80;99.90;;;;;;5071932;28;20478;-82
2023/06/19 08:54:22;;;;;;;7.50;5.95;;;20.30;99.90;;;;;;5080316;28;20060;-82
2023/06/19 08:56:48;;;;;;;8.32;6.70;;;19.80;99.90;;;;;;5081568;28;20040;-83
2023/06/19 08:59:16;;;;;;;10.20;6.65;;;19.80;99.90;;;;;;5067501;28;20039;-83
2023/06/19 09:01:52;;;;;;;9.30;5.50;;;19.80;99.90;;;;;;5082746;28;20036;-81
2023/06/19 09:04:22;;;;;;;6.97;5.53;;;19.80;99.90;;;;;;5078745;28;20048;-82
2023/06/19 09:06:53;;;;;;;10.95;6.30;;;19.80;99.90;;;;;;5081417;28;20044;-83
2023/06/19 09:09:22;;;;;;;5.60;5.10;;;19.80;99.90;;;;;;5077668;28;20099;-82
2023/06/19 09:12:17;;;;;;;7.82;5.18;;;20.60;99.90;;;;;;5074665;28;20093;-83
2023/06/19 09:14:45;;;;;;;9.95;6.82;;;20.60;99.90;;;;;;5062576;28;20411;-83
2023/06/19 09:17:21;;;;;;;6.13;5.53;;;19.90;99.90;;;;;;5081673;28;20094;-82
2023/06/19 09:19:52;;;;;;;6.30;5.18;;;20.00;99.90;;;;;;5081566;28;20037;-83
2023/06/19 09:22:20;;;;;;;7.45;5.07;;;20.00;99.90;;;;;;5083094;28;20048;-82
2023/06/19 09:24:46;;;;;;;5.47;4.95;;;20.00;99.90;;;;;;5083816;28;20082;-83
2023/06/19 09:27:19;;;;;;;8.25;5.38;;;20.10;99.90;;;;;;5086310;28;20078;-82
2023/06/19 09:29:47;;;;;;;6.68;5.40;;;20.10;99.90;;;;;;5081415;28;20609;-82
2023/06/19 09:32:20;;;;;;;7.20;5.60;;;20.10;99.90;;;;;;5085185;28;20032;-81
2023/06/19 09:34:47;;;;;;;8.80;6.95;;;20.20;99.90;;;;;;5086935;28;20161;-81
2023/06/19 09:37:13;;;;;;;8.43;7.05;;;20.20;99.90;;;;;;5076411;28;21184;-81
2023/06/19 09:39:40;;;;;;;9.40;6.97;;;20.20;99.90;;;;;;5083791;28;20052;-81
2023/06/19 09:42:10;;;;;;;7.72;7.03;;;20.10;99.90;;;;;;5091690;28;20395;-82
2023/06/19 09:44:41;;;;;;;12.55;8.02;;;20.10;99.90;;;;;;5091720;28;20047;-83
2023/06/19 09:47:23;;;;;;;13.90;8.32;;;20.10;99.90;;;;;;5063808;28;20052;-83
2023/06/19 09:49:53;;;;;;;10.23;8.27;;;20.20;99.90;;;;;;5086737;28;20044;-84
2023/06/19 09:52:22;;;;;;;13.10;9.18;;;20.20;99.90;;;;;;5070075;28;20028;-81
2023/06/19 09:54:50;;;;;;;9.73;8.82;;;20.20;99.90;;;;;;5085501;28;20534;-83
2023/06/19 09:57:16;;;;;;;14.82;11.65;;;20.00;99.90;;;;;;5073335;28;20040;-83
2023/06/19 09:59:42;;;;;;;10.70;9.30;;;19.80;99.90;;;;;;5097133;28;20123;-83
2023/06/19 10:02:09;;;;;;;10.43;9.20;;;20.00;99.90;;;;;;5084096;28;20032;-84
2023/06/19 10:04:50;;;;;;;13.05;10.88;;;19.90;99.90;;;;;;5071908;28;20460;-82
2023/06/19 10:07:21;;;;;;;10.52;9.50;;;19.90;99.90;;;;;;5081486;28;20041;-82
2023/06/19 10:10:12;;;;;;;11.35;10.25;;;19.90;99.90;;;;;;5089636;28;20037;-82
2023/06/19 10:12:43;;;;;;;11.85;10.43;;;19.80;99.90;;;;;;5073257;28;20132;-82
2023/06/19 10:15:15;;;;;;;13.88;10.90;;;19.80;99.90;;;;;;5080401;28;20037;-83
2023/06/19 10:17:45;;;;;;;11.20;10.25;;;19.80;99.90;;;;;;5071184;28;20040;-83
2023/06/19 10:20:32;;;;;;;12.57;10.35;;;19.80;99.90;;;;;;5072538;28;20098;-83
2023/06/19 10:23:17;;;;;;;11.48;10.45;;;19.80;99.90;;;;;;5054714;28;20048;-83
2023/06/19 10:25:45;;;;;;;12.75;11.32;;;19.80;99.90;;;;;;5075250;28;20056;-83
2023/06/19 10:28:30;;;;;;;11.57;9.43;;;19.80;99.90;;;;;;5054027;28;20166;-83
2023/06/19 10:30:58;;;;;;;12.02;10.82;;;19.90;99.90;;;;;;5064182;28;20052;-83
2023/06/19 10:33:31;;;;;;;13.05;11.70;;;20.00;99.90;;;;;;5065806;28;20036;-82
2023/06/19 10:35:59;;;;;;;13.53;12.23;;;20.00;99.90;;;;;;5072330;28;20115;-82
2023/06/19 10:38:25;;;;;;;11.98;10.98;;;20.00;99.90;;;;;;5083278;28;20301;-82
2023/06/19 10:40:52;;;;;;;12.20;9.43;;;20.00;99.90;;;;;;5052931;28;20044;-82
2023/06/19 10:43:27;;;;;;;12.60;10.77;;;20.10;99.90;;;;;;5083143;28;20032;-82
2023/06/19 10:45:53;;;;;;;13.20;10.45;;;20.00;99.90;;;;;;5081947;28;20047;-82
2023/06/19 10:48:28;;;;;;;11.88;10.52;;;20.20;99.90;;;;;;5072253;28;20411;-82
2023/06/19 10:50:56;;;;;;;12.20;10.95;;;20.10;99.90;;;;;;5082454;28;20036;-82
2023/06/19 10:53:31;;;;;;;12.93;11.38;;;20.10;99.90;;;;;;5080125;28;20025;-82
2023/06/19 10:55:58;;;;;;;12.73;10.68;;;20.10;99.90;;;;;;5069975;28;20053;-83
2023/06/19 10:58:25;;;;;;;13.25;11.70;;;20.20;99.90;;;;;;5074440;28;20107;-84
2023/06/19 11:00:50;;;;;;;18.48;12.73;;;20.20;99.90;;;;;;5078437;28;20040;-82
2023/06/19 11:03:16;;;;;;;15.32;11.02;;;20.10;99.90;;;;;;5072448;28;20036;-83
2023/06/19 11:05:44;;;;;;;15.32;10.48;;;21.10;99.90;;;;;;5074993;28;20037;-82
2023/06/19 11:08:10;;;;;;;11.95;10.38;;;20.40;99.90;;;;;;5071601;28;20044;-81
2023/06/19 11:10:36;;;;;;;12.13;10.93;;;20.50;99.90;;;;;;5080623;28;20044;-82
2023/06/19 11:13:03;;;;;;;14.85;11.52;;;20.50;99.90;;;;;;5071255;28;20047;-82
2023/06/19 11:15:29;;;;;;;11.52;9.98;;;20.60;99.90;;;;;;5051793;28;20484;-82
2023/06/19 11:17:55;;;;;;;14.07;12.63;;;20.60;99.90;;;;;;5070025;28;20543;-82
2023/06/19 11:20:21;;;;;;;14.75;12.50;;;20.60;99.90;;;;;;5082434;28;20036;-83
2023/06/19 11:22:47;;;;;;;16.58;11.70;;;20.60;99.90;;;;;;5081570;28;20617;-83
2023/06/19 11:25:12;;;;;;;13.18;11.80;;;20.70;99.90;;;;;;5077768;28;20500;-83
2023/06/19 11:27:39;;;;;;;14.90;12.38;;;20.80;99.90;;;;;;5081951;28;20039;-83
2023/06/19 11:30:07;;;;;;;13.75;12.05;;;21.00;99.90;;;;;;5072086;28;20032;-84
2023/06/19 11:32:40;;;;;;;13.98;12.23;;;21.10;99.90;;;;;;5077943;28;20036;-83
2023/06/19 11:35:08;;;;;;;14.95;11.38;;;21.10;99.90;;;;;;5080842;28;20079;-83
2023/06/19 11:37:34;;;;;;;17.50;12.82;;;21.20;99.90;;;;;;5080940;28;20131;-84
2023/06/19 11:40:00;;;;;;;13.88;11.18;;;21.20;99.90;;;;;;5077720;28;20044;-82
2023/06/19 11:42:28;;;;;;;15.60;11.93;;;21.20;99.90;;;;;;5083190;28;20040;-83
2023/06/19 11:44:54;;;;;;;16.73;12.30;;;21.20;99.90;;;;;;5092023;28;20033;-82
2023/06/19 11:47:20;;;;;;;14.30;11.55;;;21.10;99.90;;;;;;5086971;28;20615;-82
2023/06/19 11:49:50;;;;;;;16.35;11.88;;;21.10;99.90;;;;;;5081617;28;20163;-83
2023/06/19 11:52:16;;;;;;;15.00;11.27;;;21.20;99.90;;;;;;5080123;28;20147;-82
2023/06/19 11:54:43;;;;;;;13.52;10.32;;;21.20;99.90;;;;;;5078361;28;20131;-81
2023/06/19 11:57:12;;;;;;;15.15;11.10;;;21.20;99.90;;;;;;5075178;28;20054;-83
2023/06/19 11:59:42;;;;;;;13.05;10.70;;;21.90;99.90;;;;;;5057744;28;20052;-83
2023/06/19 12:02:08;;;;;;;14.15;11.07;;;21.20;99.90;;;;;;5083076;28;20036;-83
2023/06/19 12:04:35;;;;;;;14.05;11.10;;;21.10;99.90;;;;;;5081999;28;20040;-83
2023/06/19 12:07:01;;;;;;;14.15;10.68;;;21.20;99.90;;;;;;5080509;28;20396;-81
2023/06/19 12:09:30;;;;;;;13.65;10.77;;;21.30;99.90;;;;;;5077748;28;20458;-82
2023/06/19 12:11:55;;;;;;;17.67;12.13;;;21.70;99.90;;;;;;5057749;28;20040;-82
2023/06/19 12:14:21;;;;;;;13.95;11.05;;;21.40;99.90;;;;;;5069188;28;20097;-82
2023/06/19 12:16:47;;;;;;;11.93;10.65;;;21.40;99.90;;;;;;5051070;28;20125;-82
2023/06/19 12:19:13;;;;;;;11.35;9.30;;;22.00;99.90;;;;;;5077258;28;20123;-81
2023/06/19 12:21:38;;;;;;;12.85;9.10;;;22.10;99.90;;;;;;5077192;28;20106;-82
2023/06/19 12:24:04;;;;;;;11.68;10.50;;;21.60;99.90;;;;;;5061304;28;20389;-82
2023/06/19 12:26:31;;;;;;;14.70;10.65;;;21.60;99.90;;;;;;5080258;28;20044;-82
2023/06/19 12:28:56;;;;;;;13.68;11.25;;;21.60;99.90;;;;;;5080528;28;20052;-82
2023/06/19 12:31:22;;;;;;;11.75;9.88;;;21.50;99.90;;;;;;5077190;28;20123;-82
2023/06/19 12:33:48;;;;;;;15.82;10.27;;;21.60;99.90;;;;;;5073117;28;20454;-81
2023/06/19 12:36:17;;;;;;;16.48;10.30;;;21.60;99.90;;;;;;5075964;28;20472;-82
2023/06/19 12:38:43;;;;;;;12.50;9.85;;;21.70;99.90;;;;;;5080790;28;20051;-82
2023/06/19 12:41:08;;;;;;;11.57;10.00;;;21.80;99.90;;;;;;5073214;28;20044;-82